Time;durP1;ratioP1;P1;durP2;ratioP2;P2;SDS_P1;SDS_P2;PMS_P1;PMS_P2;Temp;Humidity;BMP_temperature;BMP_pressure;BME280_temperature;BME280_humidity;BME280_pressure;Samples;Min_cycle;Max_cycle;Signal;HPM_P1;HPM_P2
2023/03/19 00:01:05;;;;;;;;;3.00;3.00;;;;;15.36;64.01;100641.59;2088149;28;46961;-70
2023/03/19 00:02:07;;;;;;;;;2.75;2.75;;;;;15.35;64.24;100642.53;2085743;28;46487;-69
2023/03/19 00:03:07;;;;;;;;;3.50;3.00;;;;;15.33;64.12;100644.41;2096044;28;46942;-70
2023/03/19 00:04:08;;;;;;;;;3.00;2.00;;;;;15.32;63.83;100648.00;2100742;28;46896;-69
2023/03/19 00:05:08;;;;;;;;;2.00;2.00;;;;;15.30;63.95;100647.22;2099232;28;46196;-70
2023/03/19 00:06:08;;;;;;;;;2.33;2.33;;;;;15.29;64.18;100649.03;2097379;28;46423;-70
2023/03/19 00:07:09;;;;;;;;;1.00;1.00;;;;;15.28;64.60;100652.63;2097012;28;46450;-68
2023/03/19 00:08:10;;;;;;;;;1.75;1.75;;;;;15.27;64.58;100650.88;2093117;28;46624;-70
2023/03/19 00:09:11;;;;;;;;;2.00;2.00;;;;;15.28;64.95;100649.09;2096390;28;46353;-70
2023/03/19 00:10:11;;;;;;;;;4.67;4.33;;;;;15.26;65.26;100651.84;2094912;28;46647;-68
2023/03/19 00:11:12;;;;;;;;;2.00;2.00;;;;;15.25;65.25;100649.22;2096595;28;45619;-70
2023/03/19 00:12:13;;;;;;;;;2.00;2.00;;;;;15.25;65.47;100651.91;2096640;28;46318;-70
2023/03/19 00:13:14;;;;;;;;;3.00;1.00;;;;;15.24;65.26;100656.34;2094111;28;45748;-69
2023/03/19 00:14:16;;;;;;;;;2.00;2.00;;;;;15.23;65.29;100651.06;2089975;28;46440;-69
2023/03/19 00:15:16;;;;;;;;;2.00;2.00;;;;;15.22;65.46;100650.19;2097460;28;46707;-70
2023/03/19 00:16:16;;;;;;;;;2.00;2.00;;;;;15.24;65.67;100655.47;2112694;27;45912;-69
2023/03/19 00:17:17;;;;;;;;;2.33;2.33;;;;;15.23;65.41;100653.75;2096885;28;46609;-69
2023/03/19 00:18:17;;;;;;;;;4.00;3.00;;;;;15.23;65.92;100653.75;2096855;28;47144;-69
2023/03/19 00:19:17;;;;;;;;;2.33;2.33;;;;;15.22;66.02;100654.66;2096775;28;44964;-69
2023/03/19 00:20:19;;;;;;;;;2.33;2.33;;;;;15.21;65.52;100659.16;2105827;28;46880;-68
2023/03/19 00:21:20;;;;;;;;;3.25;3.25;;;;;15.20;65.50;100653.88;2105546;27;45591;-68
2023/03/19 00:22:20;;;;;;;;;2.33;2.33;;;;;15.20;65.88;100659.22;2105255;28;46904;-70
2023/03/19 00:23:21;;;;;;;;;2.00;2.00;;;;;15.19;65.37;100654.81;2106198;28;45585;-69
2023/03/19 00:24:21;;;;;;;;;2.33;2.33;;;;;15.19;65.91;100655.69;2105659;28;46227;-70
2023/03/19 00:25:22;;;;;;;;;1.67;1.67;;;;;15.19;65.42;100657.47;2097351;28;45562;-71
2023/03/19 00:26:22;;;;;;;;;3.00;3.00;;;;;15.18;65.65;100659.28;2091863;28;47168;-68
2023/03/19 00:27:23;;;;;;;;;2.00;2.00;;;;;15.17;65.34;100654.88;2097089;28;46188;-69
2023/03/19 00:28:23;;;;;;;;;3.00;3.00;;;;;15.18;65.33;100663.75;2105525;28;47629;-69
2023/03/19 00:29:23;;;;;;;;;1.33;1.33;;;;;15.17;65.56;100657.56;2105718;28;45654;-70
2023/03/19 00:30:24;;;;;;;;;2.00;2.00;;;;;15.17;65.39;100654.88;2105951;28;46957;-70
2023/03/19 00:31:26;;;;;;;;;2.33;2.33;;;;;15.17;65.38;100660.22;2105513;28;45982;-69
2023/03/19 00:32:26;;;;;;;;;0.50;0.50;;;;;15.18;65.25;100658.41;2105482;28;45895;-71
2023/03/19 00:33:26;;;;;;;;;2.00;2.00;;;;;15.17;65.36;100660.22;2096928;28;46039;-70
2023/03/19 00:34:27;;;;;;;;;2.33;1.67;;;;;15.18;65.15;100661.97;2088229;28;47636;-70
2023/03/19 00:35:27;;;;;;;;;1.00;1.00;;;;;15.19;65.24;100662.81;2088257;28;46501;-70
2023/03/19 00:36:28;;;;;;;;;0.00;0.00;;;;;15.20;65.30;100662.75;2097041;28;45318;-69
2023/03/19 00:37:29;;;;;;;;;1.75;1.75;;;;;15.21;65.83;100660.97;2105566;28;47056;-70
2023/03/19 00:38:29;;;;;;;;;1.00;1.00;;;;;15.21;65.04;100667.16;2105364;28;46885;-70
2023/03/19 00:39:30;;;;;;;;;3.00;3.00;;;;;15.21;65.12;100664.50;2096595;28;45710;-69
2023/03/19 00:40:30;;;;;;;;;1.00;1.00;;;;;15.19;65.32;100663.69;2096952;28;45617;-69
2023/03/19 00:41:31;;;;;;;;;1.67;1.67;;;;;15.18;65.38;100669.13;2104748;28;46257;-70
2023/03/19 00:42:31;;;;;;;;;2.00;2.00;;;;;15.17;65.23;100670.91;2105443;28;45928;-69
2023/03/19 00:43:32;;;;;;;;;0.67;0.67;;;;;15.17;65.36;100667.38;2105496;28;46774;-70
2023/03/19 00:44:32;;;;;;;;;1.67;1.67;;;;;15.16;65.18;100669.19;2106031;28;46672;-70
2023/03/19 00:45:33;;;;;;;;;2.33;2.00;;;;;15.15;65.02;100664.78;2106584;27;46233;-70
2023/03/19 00:46:33;;;;;;;;;2.67;2.67;;;;;15.14;65.53;100663.03;2096694;28;45685;-70
2023/03/19 00:47:33;;;;;;;;;2.00;2.00;;;;;15.14;65.63;100670.19;2096489;28;46524;-72
2023/03/19 00:48:34;;;;;;;;;3.33;2.33;;;;;15.13;65.58;100676.47;2105934;28;45588;-70
2023/03/19 00:49:34;;;;;;;;;4.00;2.33;;;;;15.13;65.47;100674.66;2105394;27;45421;-69
2023/03/19 00:50:35;;;;;;;;;2.67;2.00;;;;;15.14;65.37;100681.75;2094513;28;46264;-71
2023/03/19 00:51:35;;;;;;;;;3.00;3.00;;;;;15.14;65.61;100673.72;2095072;28;45694;-70
2023/03/19 00:52:35;;;;;;;;;2.00;2.00;;;;;15.14;65.05;100676.41;2112355;27;46304;-69
2023/03/19 00:53:38;;;;;;;;;4.33;2.33;;;;;15.15;64.93;100675.47;2112534;27;45502;-70
2023/03/19 00:54:39;;;;;;;;;1.75;1.75;;;;;15.14;64.80;100676.41;2113925;27;46385;-69
2023/03/19 00:55:39;;;;;;;;;3.50;2.75;;;;;15.14;65.30;100672.84;2112229;27;46965;-69
2023/03/19 00:56:40;;;;;;;;;3.00;2.00;;;;;15.13;65.21;100671.13;2112655;27;46477;-70
2023/03/19 00:57:40;;;;;;;;;2.00;2.00;;;;;15.12;65.33;100667.56;2114011;27;46834;-70
2023/03/19 00:58:41;;;;;;;;;2.67;2.67;;;;;15.13;65.37;100674.66;2109927;27;46212;-69
2023/03/19 00:59:41;;;;;;;;;1.00;1.00;;;;;15.13;65.44;100671.13;2105134;28;46673;-70
2023/03/19 01:00:42;;;;;;;;;2.00;2.00;;;;;15.13;65.13;100673.78;2105749;27;46544;-70
2023/03/19 01:01:42;;;;;;;;;2.00;2.00;;;;;15.14;65.55;100675.53;2104194;27;46117;-69
2023/03/19 01:02:42;;;;;;;;;2.33;2.33;;;;;15.15;65.22;100678.13;2104436;28;46549;-69
2023/03/19 01:03:44;;;;;;;;;2.33;2.33;;;;;15.15;65.47;100679.94;2096843;28;46261;-70
2023/03/19 01:04:47;;;;;;;;;0.75;0.75;;;;;15.15;65.49;100680.81;2096853;27;46620;-68
2023/03/19 01:05:48;;;;;;;;;2.50;2.50;;;;;15.17;65.34;100689.63;2105489;28;46319;-70
2023/03/19 01:06:49;;;;;;;;;2.00;2.00;;;;;15.16;64.58;100687.03;2105024;27;47001;-70
2023/03/19 01:07:50;;;;;;;;;2.75;2.75;;;;;15.14;65.29;100681.75;2105212;28;46403;-70
2023/03/19 01:08:50;;;;;;;;;2.67;2.67;;;;;15.13;65.19;100681.81;2105439;27;46583;-70
2023/03/19 01:09:50;;;;;;;;;1.33;1.33;;;;;15.13;64.96;100681.81;2105465;27;46300;-70
2023/03/19 01:10:51;;;;;;;;;2.00;2.00;;;;;15.11;64.92;100681.84;2105978;28;45783;-70
2023/03/19 01:11:51;;;;;;;;;2.00;2.00;;;;;15.10;64.92;100680.09;2105730;27;46768;-71
2023/03/19 01:12:52;;;;;;;;;3.00;3.00;;;;;15.10;65.19;100688.13;2106046;27;46643;-69
2023/03/19 01:13:52;;;;;;;;;4.67;3.33;;;;;15.09;65.11;100688.19;2096374;28;46294;-70
2023/03/19 01:14:52;;;;;;;;;1.33;1.33;;;;;15.07;65.08;100685.59;2081656;28;46846;-70
2023/03/19 01:15:53;;;;;;;;;1.33;1.33;;;;;15.09;65.46;100688.19;2094736;28;46150;-70
2023/03/19 01:16:53;;;;;;;;;2.67;2.67;;;;;15.06;65.42;100686.53;2105614;28;46831;-69
2023/03/19 01:17:54;;;;;;;;;1.67;1.67;;;;;15.04;65.17;100683.03;2097240;28;46354;-69
2023/03/19 01:18:54;;;;;;;;;5.00;3.00;;;;;15.01;64.93;100692.06;2106174;28;45533;-70
2023/03/19 01:19:55;;;;;;;;;3.00;3.00;;;;;14.99;64.96;100687.69;2113435;27;46201;-70
2023/03/19 01:20:56;;;;;;;;;5.33;4.00;;;;;14.96;64.92;100688.69;2114154;27;46302;-69
2023/03/19 01:21:56;;;;;;;;;5.25;3.75;;;;;14.92;64.98;100684.41;2106208;27;46306;-69
2023/03/19 01:22:57;;;;;;;;;2.00;2.00;;;;;14.90;65.15;100688.06;2095912;28;46392;-69
2023/03/19 01:23:57;;;;;;;;;4.00;3.00;;;;;14.90;65.44;100696.09;2096264;28;46589;-69
2023/03/19 01:24:58;;;;;;;;;5.00;4.33;;;;;14.88;65.58;100690.81;2106390;27;45680;-70
2023/03/19 01:25:58;;;;;;;;;2.33;1.33;;;;;14.87;65.23;100694.41;2105880;27;46508;-69
2023/03/19 01:26:58;;;;;;;;;2.67;2.00;;;;;14.89;65.53;100687.22;2105648;28;45846;-70
2023/03/19 01:27:59;;;;;;;;;2.00;2.00;;;;;14.91;65.31;100689.81;2106249;27;46488;-69
2023/03/19 01:28:59;;;;;;;;;3.00;3.00;;;;;14.88;65.41;100690.81;2105136;27;46653;-70
2023/03/19 01:30:00;;;;;;;;;3.00;3.00;;;;;14.89;65.12;100686.34;2105713;27;46454;-71
2023/03/19 01:31:04;;;;;;;;;3.00;3.00;;;;;14.89;65.32;100695.22;2105759;27;46898;-69
2023/03/19 01:32:05;;;;;;;;;2.00;2.00;;;;;14.87;65.32;100685.53;2105652;28;47223;-70
2023/03/19 01:33:06;;;;;;;;;3.67;3.67;;;;;14.90;65.05;100690.75;2105353;27;45901;-70
2023/03/19 01:34:06;;;;;;;;;2.25;2.25;;;;;14.88;64.88;100690.81;2105339;27;46567;-70
2023/03/19 01:35:08;;;;;;;;;3.67;2.67;;;;;14.88;65.52;100692.63;2105739;28;46035;-69
2023/03/19 01:36:09;;;;;;;;;2.00;2.00;;;;;14.86;65.03;100695.31;2105844;27;47152;-70
2023/03/19 01:37:09;;;;;;;;;3.00;3.00;;;;;14.87;65.32;100697.09;2101097;27;46610;-70
2023/03/19 01:38:10;;;;;;;;;3.67;2.67;;;;;14.88;65.48;100693.50;2105319;28;46526;-70
2023/03/19 01:39:10;;;;;;;;;5.00;3.67;;;;;14.90;65.82;100696.09;2096759;28;46473;-69
2023/03/19 01:40:13;;;;;;;;;3.33;3.00;;;;;14.91;65.21;100697.84;2096403;28;45937;-69
2023/03/19 01:41:13;;;;;;;;;3.25;3.00;;;;;14.90;65.48;100690.75;2105679;27;46778;-71
2023/03/19 01:42:14;;;;;;;;;2.00;2.00;;;;;14.89;65.48;100699.69;2108892;27;45098;-69
2023/03/19 01:43:17;;;;;;;;;3.67;3.67;;;;;14.90;65.46;100706.78;2113639;27;46361;-68
2023/03/19 01:44:38;;;;;;;;;2.25;1.75;;;;;14.88;65.59;100696.16;2112930;27;46495;-69
2023/03/19 01:45:41;;;;;;;;;3.25;3.25;;;;;14.89;65.70;100697.91;2109640;27;46456;-70
2023/03/19 01:46:42;;;;;;;;;3.50;3.00;;;;;14.90;65.48;100696.09;2102899;28;46406;-69
2023/03/19 01:47:43;;;;;;;;;4.67;4.67;;;;;14.90;65.49;100696.09;2103103;28;46644;-70
2023/03/19 01:48:58;;;;;;;;;4.25;4.25;;;;;14.89;65.26;100697.03;2102272;28;45913;-69
2023/03/19 01:49:59;;;;;;;;;3.00;3.00;;;;;14.88;65.20;100697.97;2102963;28;46543;-70
2023/03/19 01:51:00;;;;;;;;;2.50;2.50;;;;;14.88;65.66;100690.81;2075055;28;46711;-70
2023/03/19 01:52:04;;;;;;;;;2.50;2.50;;;;;14.88;65.64;100692.63;2076536;28;46554;-70
2023/03/19 01:53:06;;;;;;;;;3.00;3.00;;;;;14.88;65.58;100693.50;2113165;27;45748;-70
2023/03/19 01:54:12;;;;;;;;;3.25;3.25;;;;;14.88;65.63;100693.50;2109322;27;46119;-69
2023/03/19 01:55:12;;;;;;;;;2.00;2.00;;;;;14.87;65.77;100683.72;2102387;28;45604;-70
2023/03/19 01:56:27;;;;;;;;;5.00;4.00;;;;;14.91;65.78;100687.16;2102870;28;47044;-69
2023/03/19 01:57:30;;;;;;;;;5.00;4.00;;;;;14.92;65.28;100683.53;2110883;27;46354;-69
2023/03/19 01:58:31;;;;;;;;;3.25;3.25;;;;;14.92;65.46;100689.75;2109499;27;46419;-69
2023/03/19 01:59:42;;;;;;;;;4.50;4.00;;;;;14.90;65.31;100691.63;2112709;27;46487;-69
2023/03/19 02:00:44;;;;;;;;;4.00;4.00;;;;;14.85;65.37;100688.25;2110170;27;46886;-69
2023/03/19 02:02:06;;;;;;;;;3.25;3.25;;;;;14.83;65.95;100683.91;2111540;27;46832;-69
2023/03/19 02:03:07;;;;;;;;;2.75;2.75;;;;;14.81;66.03;100689.31;2104895;28;46580;-68
2023/03/19 02:04:08;;;;;;;;;3.00;3.00;;;;;14.80;66.06;100687.56;2110869;27;46159;-69
2023/03/19 02:05:14;;;;;;;;;3.33;3.33;;;;;14.80;66.35;100681.34;2110794;27;46838;-69
2023/03/19 02:06:16;;;;;;;;;4.25;4.25;;;;;14.81;66.21;100680.41;2113739;27;46136;-69
2023/03/19 02:07:16;;;;;;;;;2.75;2.75;;;;;14.83;66.49;100683.91;2111045;27;45675;-71
2023/03/19 02:08:20;;;;;;;;;4.00;3.00;;;;;14.84;66.67;100678.50;2110337;27;46271;-68
2023/03/19 02:09:20;;;;;;;;;3.25;3.25;;;;;14.85;66.51;100679.34;2102307;27;45861;-68
2023/03/19 02:10:22;;;;;;;;;3.67;3.67;;;;;14.85;66.55;100687.38;2096050;28;46139;-68
2023/03/19 02:11:23;;;;;;;;;6.75;5.75;;;;;14.85;66.45;100679.34;2095618;28;47035;-70
2023/03/19 02:12:23;;;;;;;;;4.00;4.00;;;;;14.84;66.19;100682.97;2112317;27;46434;-69
2023/03/19 02:13:23;;;;;;;;;3.67;3.67;;;;;14.85;66.24;100679.34;2111806;27;47728;-69
2023/03/19 02:14:23;;;;;;;;;4.00;4.00;;;;;14.84;66.15;100677.63;2096067;28;46819;-70
2023/03/19 02:15:24;;;;;;;;;3.00;2.67;;;;;14.84;66.49;100674.94;2088783;28;46174;-70
2023/03/19 02:16:25;;;;;;;;;4.33;4.33;;;;;14.84;66.65;100673.16;2103675;28;45518;-70
2023/03/19 02:17:31;;;;;;;;;2.75;2.75;;;;;14.86;66.26;100665.94;2104850;28;46985;-69
2023/03/19 02:18:31;;;;;;;;;3.00;2.25;;;;;14.85;66.22;100671.34;2108071;27;46428;-70
2023/03/19 02:19:47;;;;;;;;;4.00;3.00;;;;;14.87;66.26;100661.50;2113379;27;45989;-69
2023/03/19 02:21:06;;;;;;;;;2.75;2.75;;;;;14.87;66.18;100665.03;2113160;27;47122;-69
2023/03/19 02:22:08;;;;;;;;;4.00;4.00;;;;;14.87;66.23;100662.34;2113337;27;45779;-70
2023/03/19 02:23:44;;;;;;;;;5.00;4.75;;;;;14.88;66.35;100665.91;2113311;27;46879;-70
2023/03/19 02:24:52;;;;;;;;;3.50;3.50;;;;;14.89;66.14;100665.84;2084702;28;46884;-69
2023/03/19 02:26:00;;;;;;;;;4.75;4.50;;;;;14.88;66.09;100658.75;2079242;28;46132;-69
2023/03/19 02:27:01;;;;;;;;;5.25;4.50;;;;;14.88;66.05;100658.75;2078558;28;46219;-69
2023/03/19 02:28:02;;;;;;;;;4.75;3.75;;;;;14.87;66.41;100664.16;2079104;28;46781;-69
2023/03/19 02:29:03;;;;;;;;;4.50;4.50;;;;;14.85;66.36;100658.84;2078990;28;46834;-70
2023/03/19 02:30:24;;;;;;;;;3.67;3.67;;;;;14.87;66.18;100666.84;2078564;28;46576;-70
2023/03/19 02:31:24;;;;;;;;;5.50;5.50;;;;;14.86;66.36;100659.72;2079032;28;47464;-69
2023/03/19 02:32:25;;;;;;;;;4.67;3.00;;;;;14.86;66.20;100665.06;2078864;28;46233;-70
2023/03/19 02:33:26;;;;;;;;;3.75;3.75;;;;;14.84;66.44;100664.25;2079298;28;45557;-68
2023/03/19 02:34:27;;;;;;;;;3.00;3.00;;;;;14.84;66.29;100664.25;2078915;28;46154;-69
2023/03/19 02:35:32;;;;;;;;;5.00;4.50;;;;;14.85;66.34;100666.00;2078615;28;46398;-70
2023/03/19 02:36:36;;;;;;;;;4.00;4.00;;;;;14.85;66.28;100672.22;2078815;28;46068;-70
2023/03/19 02:37:37;;;;;;;;;4.00;4.00;;;;;14.87;66.23;100670.38;2078949;28;47005;-69
2023/03/19 02:38:40;;;;;;;;;5.33;4.67;;;;;14.87;66.08;100672.19;2079149;28;45645;-70
2023/03/19 02:39:49;;;;;;;;;3.25;3.25;;;;;14.89;66.03;100671.19;2078291;28;46123;-69
2023/03/19 02:41:05;;;;;;;;;2.75;2.75;;;;;14.90;65.91;100672.03;2079108;28;46086;-69
2023/03/19 02:42:06;;;;;;;;;2.25;2.25;;;;;14.90;65.85;100678.25;2078698;28;46556;-70
2023/03/19 02:43:06;;;;;;;;;4.50;4.50;;;;;14.91;66.17;100674.66;2072268;28;47012;-69
2023/03/19 02:44:10;;;;;;;;;5.00;5.00;;;;;14.90;65.89;100680.94;2070375;28;46590;-69
2023/03/19 02:45:12;;;;;;;;;5.00;4.75;;;;;14.89;65.83;100681.88;2070567;28;46039;-70
2023/03/19 02:46:12;;;;;;;;;3.75;3.50;;;;;14.90;66.03;100688.06;2081960;28;45094;-70
2023/03/19 02:47:12;;;;;;;;;3.00;3.00;;;;;14.90;66.08;100688.06;2078673;28;46641;-69
2023/03/19 02:48:13;;;;;;;;;4.00;3.00;;;;;14.88;65.92;100685.47;2078826;28;46652;-69
2023/03/19 02:49:14;;;;;;;;;2.67;2.67;;;;;14.89;65.62;100691.69;2078589;28;47173;-70
2023/03/19 02:50:14;;;;;;;;;3.00;3.00;;;;;14.87;65.93;100686.41;2078416;28;46314;-69
2023/03/19 02:51:15;;;;;;;;;3.67;3.67;;;;;14.86;65.64;100684.63;2075995;28;46916;-69
2023/03/19 02:52:16;;;;;;;;;5.33;5.33;;;;;14.86;65.86;100687.31;2070076;28;46338;-69
2023/03/19 02:53:17;;;;;;;;;4.50;4.00;;;;;14.88;65.85;100688.16;2070792;28;46415;-69
2023/03/19 02:54:17;;;;;;;;;2.67;2.67;;;;;14.88;65.81;100689.94;2078464;28;46812;-70
2023/03/19 02:55:17;;;;;;;;;3.00;3.00;;;;;14.88;65.51;100681.94;2077542;28;46659;-69
2023/03/19 02:56:18;;;;;;;;;3.67;3.67;;;;;14.88;65.41;100684.59;2078477;28;45506;-69
2023/03/19 02:57:18;;;;;;;;;4.00;3.00;;;;;14.87;66.00;100677.53;2078533;28;46381;-70
2023/03/19 02:58:19;;;;;;;;;2.00;2.00;;;;;14.87;65.66;100685.53;2078764;28;46973;-69
2023/03/19 02:59:20;;;;;;;;;4.25;4.25;;;;;14.88;65.81;100681.94;2078459;28;46344;-69
2023/03/19 03:00:20;;;;;;;;;5.67;3.00;;;;;14.88;65.93;100684.59;2078754;28;46266;-69
2023/03/19 03:01:21;;;;;;;;;4.00;4.00;;;;;14.88;66.04;100689.94;2083798;28;46561;-68
2023/03/19 03:02:21;;;;;;;;;3.00;3.00;;;;;14.89;65.76;100683.66;2088784;28;46876;-69
2023/03/19 03:03:21;;;;;;;;;3.33;3.00;;;;;14.89;65.46;100681.88;2094956;28;46365;-70
2023/03/19 03:04:22;;;;;;;;;3.00;3.00;;;;;14.91;65.95;100689.81;2095381;28;47069;-70
2023/03/19 03:05:22;;;;;;;;;3.00;3.00;;;;;14.90;66.12;100686.28;2095008;28;46611;-69
2023/03/19 03:06:23;;;;;;;;;2.00;2.00;;;;;14.90;65.95;100683.59;2095509;28;46481;-70
2023/03/19 03:07:23;;;;;;;;;2.67;2.67;;;;;14.93;65.91;100687.94;2095312;28;46659;-69
2023/03/19 03:08:23;;;;;;;;;4.33;4.33;;;;;14.93;65.74;100686.16;2086395;28;47620;-69
2023/03/19 03:09:24;;;;;;;;;2.67;2.67;;;;;14.94;65.73;100685.22;2086361;28;46933;-69
2023/03/19 03:10:25;;;;;;;;;4.25;4.25;;;;;14.95;65.31;100684.28;2080626;28;46845;-70
2023/03/19 03:11:25;;;;;;;;;4.00;4.00;;;;;14.94;65.48;100684.34;2086803;28;46618;-69
2023/03/19 03:12:26;;;;;;;;;5.00;5.00;;;;;14.93;65.38;100687.94;2094985;28;46964;-70
2023/03/19 03:13:27;;;;;;;;;4.00;4.00;;;;;14.93;65.38;100687.94;2095178;28;46506;-69
2023/03/19 03:14:27;;;;;;;;;3.00;2.00;;;;;14.92;65.75;100684.41;2095198;28;46195;-68
2023/03/19 03:15:28;;;;;;;;;2.00;2.00;;;;;14.93;65.84;100696.84;2094689;28;46238;-69
2023/03/19 03:16:29;;;;;;;;;2.50;2.50;;;;;14.94;65.52;100692.34;2095302;28;46108;-70
2023/03/19 03:17:29;;;;;;;;;4.67;4.67;;;;;14.92;65.83;100687.06;2092582;28;45488;-69
2023/03/19 03:18:30;;;;;;;;;2.00;2.00;;;;;14.93;65.61;100688.81;2094651;28;46775;-69
2023/03/19 03:19:30;;;;;;;;;2.00;2.00;;;;;14.93;65.37;100687.94;2095028;28;46169;-69
2023/03/19 03:20:31;;;;;;;;;3.67;3.00;;;;;14.93;65.91;100688.81;2095131;28;46844;-69
2023/03/19 03:21:33;;;;;;;;;4.00;3.00;;;;;14.93;65.94;100686.16;2095503;28;46856;-69
2023/03/19 03:22:34;;;;;;;;;3.50;3.50;;;;;14.93;65.57;100686.16;2094868;28;46982;-69
2023/03/19 03:23:35;;;;;;;;;3.25;2.00;;;;;14.94;65.86;100690.56;2095029;28;46857;-69
2023/03/19 03:24:36;;;;;;;;;3.00;3.00;;;;;14.94;65.65;100685.22;2095303;28;46401;-69
2023/03/19 03:25:36;;;;;;;;;3.00;3.00;;;;;14.94;65.81;100689.69;2094972;28;46265;-69
2023/03/19 03:26:39;;;;;;;;;4.00;4.00;;;;;14.93;65.77;100693.28;2086654;28;46448;-69
2023/03/19 03:27:41;;;;;;;;;3.00;3.00;;;;;14.91;65.76;100690.69;2086662;28;46644;-70
2023/03/19 03:28:42;;;;;;;;;3.50;3.50;;;;;14.91;65.70;100690.69;2095201;28;45688;-69
2023/03/19 03:29:42;;;;;;;;;2.75;2.50;;;;;14.91;65.64;100688.00;2086832;28;46542;-69
2023/03/19 03:30:42;;;;;;;;;3.33;3.33;;;;;14.93;65.73;100688.81;2088154;28;46290;-70
2023/03/19 03:31:43;;;;;;;;;2.00;2.00;;;;;14.94;65.35;100689.69;2088264;28;46393;-70
2023/03/19 03:32:44;;;;;;;;;5.67;4.67;;;;;14.93;65.35;100691.50;2088510;28;46197;-70
2023/03/19 03:33:44;;;;;;;;;5.00;5.00;;;;;14.91;65.17;100689.81;2096321;28;46158;-70
2023/03/19 03:34:45;;;;;;;;;4.00;4.00;;;;;14.87;64.89;100686.41;2096774;28;46506;-70
2023/03/19 03:35:45;;;;;;;;;3.67;3.67;;;;;14.84;64.78;100691.84;2105461;28;46705;-70
2023/03/19 03:36:45;;;;;;;;;4.00;4.00;;;;;14.82;65.40;100690.16;2105645;27;47094;-69
2023/03/19 03:37:48;;;;;;;;;3.67;3.67;;;;;14.79;65.13;100699.19;2106187;28;46479;-70
2023/03/19 03:38:48;;;;;;;;;3.25;3.00;;;;;14.78;65.06;100691.22;2106392;28;46167;-69
2023/03/19 03:39:48;;;;;;;;;4.67;4.67;;;;;14.76;65.29;100693.97;2097144;28;45661;-69
2023/03/19 03:40:52;;;;;;;;;3.67;3.00;;;;;14.77;65.46;100697.50;2097039;28;46282;-69
2023/03/19 03:41:52;;;;;;;;;4.75;3.50;;;;;14.77;64.92;100702.84;2104880;28;46710;-70
2023/03/19 03:42:53;;;;;;;;;4.00;3.67;;;;;14.77;65.36;100697.50;2097215;28;45675;-68
2023/03/19 03:43:54;;;;;;;;;4.50;4.50;;;;;14.77;65.57;100701.06;2098574;28;45996;-70
2023/03/19 03:44:54;;;;;;;;;4.33;4.33;;;;;14.77;65.13;100694.84;2100939;28;46692;-70
2023/03/19 03:45:55;;;;;;;;;5.00;4.00;;;;;14.77;65.51;100701.06;2112382;27;46776;-69
2023/03/19 03:46:55;;;;;;;;;5.67;5.67;;;;;14.77;65.68;100695.72;2107823;27;46022;-69
2023/03/19 03:47:55;;;;;;;;;1.00;1.00;;;;;14.78;65.67;100702.78;2106467;28;45945;-70
2023/03/19 03:48:56;;;;;;;;;3.00;3.00;;;;;14.79;65.33;100703.66;2105945;28;46840;-69
2023/03/19 03:49:56;;;;;;;;;4.67;4.67;;;;;14.78;65.21;100696.56;2102950;28;45495;-70
2023/03/19 03:50:56;;;;;;;;;4.67;4.67;;;;;14.77;65.29;100701.06;2110090;27;46915;-70
2023/03/19 03:51:57;;;;;;;;;4.67;4.67;;;;;14.77;65.34;100698.38;2105959;28;46552;-69
2023/03/19 03:52:57;;;;;;;;;1.00;1.00;;;;;14.76;65.67;100707.31;2096008;28;46476;-69
2023/03/19 03:53:57;;;;;;;;;4.00;4.00;;;;;14.76;65.82;100704.66;2096937;28;46565;-69
2023/03/19 03:54:58;;;;;;;;;4.67;4.67;;;;;14.77;65.68;100706.41;2102707;28;46478;-69
2023/03/19 03:55:59;;;;;;;;;3.67;3.67;;;;;14.77;65.51;100711.75;2098960;28;46425;-70
2023/03/19 03:57:00;;;;;;;;;4.00;4.00;;;;;14.77;65.34;100705.53;2104840;28;46590;-69
2023/03/19 03:58:00;;;;;;;;;3.00;3.00;;;;;14.77;65.58;100706.41;2106006;28;46849;-70
2023/03/19 03:59:01;;;;;;;;;4.33;4.33;;;;;14.78;65.17;100704.59;2097179;28;45785;-69
2023/03/19 04:00:01;;;;;;;;;5.00;5.00;;;;;14.79;65.21;100704.53;2096751;28;46903;-68
2023/03/19 04:01:01;;;;;;;;;5.00;5.00;;;;;14.80;65.02;100702.72;2103966;28;47764;-69
2023/03/19 04:02:02;;;;;;;;;5.00;5.00;;;;;14.80;65.70;100706.25;2101705;28;45088;-70
2023/03/19 04:03:04;;;;;;;;;5.00;5.00;;;;;14.79;65.50;100709.88;2105573;27;47034;-69
2023/03/19 04:04:04;;;;;;;;;5.00;5.00;;;;;14.80;65.23;100708.06;2112772;27;46446;-70
2023/03/19 04:05:05;;;;;;;;;6.00;6.00;;;;;14.79;65.36;100703.66;2114445;27;46553;-70
2023/03/19 04:06:05;;;;;;;;;4.33;4.33;;;;;14.81;65.62;100709.81;2109405;27;46369;-70
2023/03/19 04:07:07;;;;;;;;;4.00;4.00;;;;;14.81;65.79;100710.69;2097078;28;46362;-68
2023/03/19 04:08:07;;;;;;;;;4.25;4.25;;;;;14.81;65.30;100710.69;2098185;27;45539;-70
2023/03/19 04:09:08;;;;;;;;;4.00;4.00;;;;;14.81;65.19;100708.00;2111498;27;46285;-69
2023/03/19 04:10:10;;;;;;;;;4.00;4.00;;;;;14.80;65.33;100705.41;2106126;27;47076;-70
2023/03/19 04:11:10;;;;;;;;;6.00;4.75;;;;;14.81;65.15;100708.00;2111839;27;46631;-69
2023/03/19 04:12:12;;;;;;;;;4.33;4.33;;;;;14.82;65.39;100708.88;2104236;28;46515;-69
2023/03/19 04:13:12;;;;;;;;;4.25;4.25;;;;;14.82;65.02;100708.88;2091985;28;46483;-69
2023/03/19 04:14:13;;;;;;;;;3.00;3.00;;;;;14.80;65.27;100705.41;2101012;28;46690;-70
2023/03/19 04:15:13;;;;;;;;;3.00;3.00;;;;;14.79;65.63;100709.88;2111446;27;46089;-69
2023/03/19 04:16:14;;;;;;;;;4.33;4.33;;;;;14.78;65.55;100707.25;2111351;27;46890;-68
2023/03/19 04:17:14;;;;;;;;;4.00;4.00;;;;;14.77;65.45;100714.41;2105441;27;46670;-70
2023/03/19 04:18:15;;;;;;;;;4.33;4.33;;;;;14.76;65.18;100709.13;2110182;27;46500;-70
2023/03/19 04:19:15;;;;;;;;;5.67;5.67;;;;;14.76;65.47;100717.16;2106322;27;45818;-69
2023/03/19 04:20:17;;;;;;;;;3.00;3.00;;;;;14.73;65.66;100713.63;2100734;28;45220;-69
2023/03/19 04:21:17;;;;;;;;;4.50;3.75;;;;;14.74;65.52;100717.22;2100649;27;46923;-70
2023/03/19 04:22:18;;;;;;;;;4.00;4.00;;;;;14.74;65.48;100717.22;2097067;28;46507;-69
2023/03/19 04:23:18;;;;;;;;;5.00;5.00;;;;;14.73;65.32;100718.97;2096540;28;46382;-69
2023/03/19 04:24:18;;;;;;;;;4.67;3.67;;;;;14.73;65.28;100713.63;2108385;27;45470;-69
2023/03/19 04:25:19;;;;;;;;;4.67;4.33;;;;;14.72;65.41;100719.03;2108431;27;46898;-69
2023/03/19 04:26:19;;;;;;;;;3.67;3.67;;;;;14.68;65.55;100710.28;2110067;27;47214;-69
2023/03/19 04:27:19;;;;;;;;;5.00;5.00;;;;;14.67;66.08;100715.69;2088241;28;46785;-69
2023/03/19 04:28:20;;;;;;;;;3.67;3.67;;;;;14.64;66.29;100718.47;2089356;28;46726;-69
2023/03/19 04:29:21;;;;;;;;;3.67;3.67;;;;;14.62;66.62;100718.56;2109395;27;45806;-69
2023/03/19 04:30:21;;;;;;;;;3.50;3.50;;;;;14.61;66.49;100722.16;2107117;27;46979;-68
2023/03/19 04:31:22;;;;;;;;;4.67;4.00;;;;;14.60;66.87;100711.50;2110681;27;46614;-69
2023/03/19 04:32:22;;;;;;;;;5.33;5.33;;;;;14.58;66.84;100722.25;2106934;27;45063;-69
2023/03/19 04:33:23;;;;;;;;;4.00;4.00;;;;;14.56;67.01;100721.44;2114293;27;46614;-69
2023/03/19 04:34:23;;;;;;;;;6.67;6.33;;;;;14.55;66.92;100717.03;2109016;27;46678;-69
2023/03/19 04:35:24;;;;;;;;;2.67;2.67;;;;;14.54;67.30;100717.09;2113739;27;46565;-70
2023/03/19 04:36:25;;;;;;;;;6.67;6.67;;;;;14.53;67.22;100718.88;2101359;27;45610;-68
2023/03/19 04:37:25;;;;;;;;;5.67;5.67;;;;;14.50;67.68;100721.69;2109151;27;46377;-69
2023/03/19 04:38:26;;;;;;;;;5.33;5.33;;;;;14.50;67.64;100718.16;2107881;27;46751;-69
2023/03/19 04:39:26;;;;;;;;;5.00;5.00;;;;;14.49;67.73;100724.41;2105665;27;46285;-69
2023/03/19 04:40:27;;;;;;;;;6.33;5.67;;;;;14.47;67.71;100724.44;2107530;27;45987;-71
2023/03/19 04:41:28;;;;;;;;;4.67;4.67;;;;;14.46;67.58;100719.16;2109428;27;45853;-70
2023/03/19 04:42:29;;;;;;;;;5.50;5.50;;;;;14.44;68.05;100724.56;2110966;27;46484;-68
2023/03/19 04:43:29;;;;;;;;;5.33;5.33;;;;;14.43;68.17;100720.13;2097350;28;48368;-70
2023/03/19 04:44:30;;;;;;;;;5.33;4.67;;;;;14.43;68.04;100725.47;2102202;28;45751;-69
2023/03/19 04:45:30;;;;;;;;;5.75;4.00;;;;;14.42;68.21;100721.91;2109115;27;45803;-69
2023/03/19 04:46:31;;;;;;;;;6.67;6.67;;;;;14.41;68.14;100725.53;2107358;27;46729;-68